GCFVGCRR

Guest
Details From GCFV - Fuerteventura
To GCRR - Lanzarote
Flight Number -
Tags generated
Created
Modified
Stats Distance 33 nm / 61 km
Max Altitude 100 ft / 30 m
Waypoints 3
Social Downloads 6
Likes 0
Share

Download

Looking for another format? Having issues loading an existing format? Contact us
Advertisement - Login to hide

Notes

Basic altitude profile: - Ascent Rate: 2500ft/min - Ascent Speed: 250kts - Cruise Altitude: 35000ft - Cruise Speed: 420kts - Descent Rate: 1500ft/min - Descent Speed: 250kts Options: - Use NATs: yes - Use PACOTS: yes - Use low airways: yes - Use high airways: yes

Route

GCFV LTE GCRR

ID Type Via Altitude (ft/m) Position (lat/lon) Dist (leg/tot) Name
O GCFV APT - 0 / 0 28.44788 / -13.86489 - / 0 nm Fuerteventura
LTE VOR - 100 / 30 28.94188 / -13.61643 32 / 32 nm LANZAROTE VOR-DME
O GCRR APT - 0 / 0 28.94547 / -13.60522 0 / 33 nm Lanzarote

Altitude Profile

Advertisement - Login to hide

GCFV

Details ICAO GCFV (FUE)
Name Fuerteventura "El Matorral"
Region Canary Islands
Timezone Atlantic/Canary (UTC+1.0)
Stats Elevation 83 ft / 25 m (AMSL)
Location 28.448200° -13.863900°
Runways 1
Magnetic Variation 3.711° W

METAR

GCFV 070700Z 36006KT 9999 SCT022 18/14 Q1018

Decode

TAF

TAF GCFV 070200Z 0703/0803 02010KT 9999 FEW025 TX25/0714Z TN17/0706Z

Decode

Departure Runways

ID Width Length Bearing (true/mag) Surface Threshold Overrun Markings Lighting
01 148 ft / 45 m 11,196 ft / 3,413 m 1.67° / 5.38° ASPHALT 3,278 ft / 999 m 0 ft / 0 m PREC-APP CENTERLINE EDGE THRESHOLD ALSF-II TDZ REIL-OMNI
19 148 ft / 45 m 11,196 ft / 3,413 m 181.67° / 185.38° ASPHALT 1,503 ft / 458 m 0 ft / 0 m PREC-APP CENTERLINE EDGE THRESHOLD ALSF-II TDZ REIL-OMNI

GCRR

Details ICAO GCRR (ACE)
Name César Manrique-Lanzarote
Region Canary Islands
Timezone Atlantic/Canary (UTC+1.0)
Stats Elevation 47 ft / 14 m (AMSL)
Location 28.945500° -13.605200°
Runways 1
Magnetic Variation 3.589° W

METAR

GCRR 070700Z 04009KT 9999 FEW020 19/15 Q1019

Decode

TAF

TAF GCRR 070200Z 0703/0803 02009KT 9999 FEW025 TX25/0714Z TN16/0706Z PROB40 0710/0716 08010KT

Decode

Destination Runways

ID Width Length Bearing (true/mag) Surface Threshold Overrun Markings Lighting
03 148 ft / 45 m 7,887 ft / 2,404 m 26.90° / 30.49° ASPHALT 285 ft / 87 m 236 ft / 72 m PREC-APP CENTERLINE EDGE THRESHOLD MALSF REIL-OMNI
21 148 ft / 45 m 7,887 ft / 2,404 m 206.90° / 210.49° ASPHALT 0 ft / 0 m 486 ft / 148 m PREC-APP CENTERLINE EDGE THRESHOLD MALSF REIL-OMNI

Approach Navaids

Runway Type Ident Frequency Range Bearing (true/mag) Slope Elevation
03 DME IRR 109.10 MHz 18 nm / 33 km - - 36 ft / 11 m (AMSL)
03 LOC-ILS IRR 109.10 MHz 18 nm / 33 km 26.90° / 30.49 ° - 47 ft / 14 m (AMSL)
03 GS IRR 109.10 MHz 10 nm / 19 km 27.81° / 31.39 ° 3.00° 0 ft / 0 m (AMSL)

Popular Alternatives